createdAt,value
2018-06-13T00:00:46.836Z,21.94
2018-06-13T00:01:46.993Z,21.88
2018-06-13T00:02:46.848Z,21.91
2018-06-13T00:03:46.886Z,21.89
2018-06-13T00:04:46.904Z,21.91
2018-06-13T00:05:46.894Z,21.91
2018-06-13T00:06:47.039Z,21.89
2018-06-13T00:07:46.958Z,21.91
2018-06-13T00:08:46.917Z,21.89
2018-06-13T00:09:46.771Z,21.91
2018-06-13T00:10:46.930Z,21.91
2018-06-13T00:11:46.934Z,21.91
2018-06-13T00:12:46.991Z,21.88
2018-06-13T00:13:46.954Z,21.91
2018-06-13T00:14:46.935Z,21.91
2018-06-13T00:15:46.969Z,21.91
2018-06-13T00:16:47.103Z,21.91
2018-06-13T00:17:46.992Z,21.92
2018-06-13T00:18:46.730Z,21.92
2018-06-13T00:19:46.907Z,21.89
2018-06-13T00:20:47.012Z,21.91
2018-06-13T00:21:46.987Z,21.89
2018-06-13T00:22:46.967Z,21.89
2018-06-13T00:23:46.857Z,21.91
2018-06-13T00:24:46.973Z,21.91
2018-06-13T00:25:46.926Z,21.89
2018-06-13T00:26:46.987Z,21.89
2018-06-13T00:27:46.758Z,21.88
2018-06-13T00:28:46.888Z,21.89
2018-06-13T00:29:46.916Z,21.89
2018-06-13T00:30:46.996Z,21.89
2018-06-13T00:31:46.833Z,21.89
2018-06-13T00:32:46.998Z,21.92
2018-06-13T00:33:46.793Z,21.89
2018-06-13T00:34:47.134Z,21.92
2018-06-13T00:35:46.964Z,21.92
2018-06-13T00:36:46.780Z,21.89
2018-06-13T00:37:47.075Z,21.89
2018-06-13T00:38:46.983Z,21.89
2018-06-13T00:39:46.912Z,21.89
2018-06-13T00:40:46.897Z,21.92
2018-06-13T00:41:46.986Z,21.91
2018-06-13T00:42:47.050Z,21.88
2018-06-13T00:43:47.076Z,21.88
2018-06-13T00:44:47.163Z,21.88
2018-06-13T00:45:46.678Z,21.91
2018-06-13T00:46:47.048Z,21.89
2018-06-13T00:47:46.785Z,21.89
2018-06-13T00:48:46.890Z,21.88
2018-06-13T00:49:47.024Z,21.89
2018-06-13T00:50:46.932Z,21.89
2018-06-13T00:51:46.858Z,21.88
2018-06-13T00:52:47.025Z,21.88
2018-06-13T00:53:46.814Z,21.89
2018-06-13T00:54:46.788Z,21.88
2018-06-13T00:55:47.001Z,21.88
2018-06-13T00:56:46.975Z,21.91
2018-06-13T00:57:46.893Z,21.89
2018-06-13T00:58:46.835Z,21.85
2018-06-13T00:59:46.891Z,21.88
2018-06-13T01:00:46.796Z,21.89
2018-06-13T01:01:46.830Z,21.88
2018-06-13T01:02:46.847Z,21.91
2018-06-13T01:03:46.729Z,21.88
2018-06-13T01:04:46.905Z,21.87
2018-06-13T01:05:46.915Z,21.88
2018-06-13T01:06:46.989Z,21.87
2018-06-13T01:07:46.842Z,21.89
2018-06-13T01:08:46.810Z,21.88
2018-06-13T01:09:46.900Z,21.85
2018-06-13T01:10:46.943Z,21.87
2018-06-13T01:11:46.832Z,21.88
2018-06-13T01:12:46.848Z,21.88
2018-06-13T01:13:47.037Z,21.88
2018-06-13T01:14:46.903Z,21.85
2018-06-13T01:15:46.916Z,21.88
2018-06-13T01:16:47.055Z,21.87
2018-06-13T01:17:46.964Z,21.88
2018-06-13T01:18:46.945Z,21.88
2018-06-13T01:19:46.886Z,21.89
2018-06-13T01:20:46.999Z,21.85
2018-06-13T01:21:46.714Z,21.88
2018-06-13T01:22:46.911Z,21.85
2018-06-13T01:23:46.856Z,21.87
2018-06-13T01:24:46.844Z,21.87
2018-06-13T01:25:47.160Z,21.84
2018-06-13T01:26:46.941Z,21.87
2018-06-13T01:27:46.895Z,21.88
2018-06-13T01:28:46.953Z,21.88
2018-06-13T01:29:46.854Z,21.87
2018-06-13T01:30:46.803Z,21.89
2018-06-13T01:31:46.794Z,21.87
2018-06-13T01:32:47.059Z,21.88
2018-06-13T01:33:46.920Z,21.87
2018-06-13T01:34:46.990Z,21.87
2018-06-13T01:35:46.970Z,21.87
2018-06-13T01:36:46.807Z,21.87
2018-06-13T01:37:46.938Z,21.87
2018-06-13T01:38:46.790Z,21.87
2018-06-13T01:39:46.879Z,21.87
2018-06-13T01:40:46.930Z,21.87
2018-06-13T01:41:46.869Z,21.87
2018-06-13T01:42:46.959Z,21.85
2018-06-13T01:43:47.056Z,21.87
2018-06-13T01:44:46.974Z,21.88
2018-06-13T01:45:46.846Z,21.87
2018-06-13T01:46:46.843Z,21.88
2018-06-13T01:47:46.963Z,21.87
2018-06-13T01:48:46.731Z,21.85
2018-06-13T01:49:46.981Z,21.87
2018-06-13T01:50:47.088Z,21.85
2018-06-13T01:51:46.731Z,21.85
2018-06-13T01:52:46.902Z,21.85
2018-06-13T01:53:46.912Z,21.85
2018-06-13T01:54:46.992Z,21.87
2018-06-13T01:55:46.863Z,21.87
2018-06-13T01:56:46.830Z,21.85
2018-06-13T01:57:46.693Z,21.85
2018-06-13T01:58:46.995Z,21.85
2018-06-13T01:59:46.831Z,21.85
2018-06-13T02:00:46.913Z,21.87
2018-06-13T02:01:46.853Z,21.82
2018-06-13T02:02:46.943Z,21.85
2018-06-13T02:03:46.819Z,21.87
2018-06-13T02:04:47.010Z,21.85
2018-06-13T02:05:46.928Z,21.85
2018-06-13T02:06:46.614Z,21.87
2018-06-13T02:07:46.798Z,21.87
2018-06-13T02:08:46.923Z,21.84
2018-06-13T02:09:46.914Z,21.84
2018-06-13T02:10:46.813Z,21.84
2018-06-13T02:11:46.819Z,21.85
2018-06-13T02:12:46.952Z,21.84
2018-06-13T02:13:46.925Z,21.84
2018-06-13T02:14:46.918Z,21.84
2018-06-13T02:15:46.696Z,21.85
2018-06-13T02:16:47.148Z,21.87
2018-06-13T02:17:46.849Z,21.84
2018-06-13T02:18:47.028Z,21.84
2018-06-13T02:19:47.010Z,21.84
2018-06-13T02:20:46.839Z,21.84
2018-06-13T02:21:46.935Z,21.85
2018-06-13T02:22:47.053Z,21.85
2018-06-13T02:23:46.853Z,21.85
2018-06-13T02:24:46.711Z,21.84
2018-06-13T02:25:47.282Z,21.84
2018-06-13T02:26:46.805Z,21.84
2018-06-13T02:27:46.826Z,21.84
2018-06-13T02:28:46.971Z,21.84
2018-06-13T02:29:46.813Z,21.84
2018-06-13T02:30:46.921Z,21.87
2018-06-13T02:31:46.910Z,21.84
2018-06-13T02:32:46.894Z,21.84
2018-06-13T02:33:46.979Z,21.84
2018-06-13T02:34:47.022Z,21.84
2018-06-13T02:35:46.924Z,21.85
2018-06-13T02:36:46.749Z,21.84
2018-06-13T02:37:46.978Z,21.81
2018-06-13T02:38:46.964Z,21.85
2018-06-13T02:39:46.828Z,21.84
2018-06-13T02:40:46.922Z,21.84
2018-06-13T02:41:46.780Z,21.85
2018-06-13T02:42:46.758Z,21.85
2018-06-13T02:43:46.757Z,21.85
2018-06-13T02:44:46.777Z,21.84
2018-06-13T02:45:46.847Z,21.84
2018-06-13T02:46:46.867Z,21.81
2018-06-13T02:47:46.861Z,21.85
2018-06-13T02:48:46.950Z,21.84
2018-06-13T02:49:46.937Z,21.8
2018-06-13T02:50:46.853Z,21.82
2018-06-13T02:51:46.708Z,21.82
2018-06-13T02:52:47.072Z,21.81
2018-06-13T02:53:46.766Z,21.84
2018-06-13T02:54:46.846Z,21.82
2018-06-13T02:55:46.954Z,21.82
2018-06-13T02:56:46.966Z,21.82
2018-06-13T02:57:46.799Z,21.82
2018-06-13T02:58:46.819Z,21.81
2018-06-13T02:59:46.840Z,21.84
2018-06-13T03:00:46.771Z,21.82
2018-06-13T03:01:46.840Z,21.84
2018-06-13T03:02:46.840Z,21.84
2018-06-13T03:03:46.966Z,21.82
2018-06-13T03:04:46.780Z,21.82
2018-06-13T03:05:46.957Z,21.82
2018-06-13T03:06:46.939Z,21.82
2018-06-13T03:07:46.996Z,21.81
2018-06-13T03:08:46.722Z,21.85
2018-06-13T03:09:46.752Z,21.82
2018-06-13T03:10:46.801Z,21.81
2018-06-13T03:11:46.948Z,21.82
2018-06-13T03:12:46.824Z,21.84
2018-06-13T03:13:46.892Z,21.82
2018-06-13T03:14:46.883Z,21.82
2018-06-13T03:15:46.774Z,21.82
2018-06-13T03:16:46.931Z,21.85
2018-06-13T03:17:46.827Z,21.81
2018-06-13T03:18:46.734Z,21.81
2018-06-13T03:19:46.837Z,21.81
2018-06-13T03:20:47.142Z,21.81
2018-06-13T03:21:46.935Z,21.82
2018-06-13T03:22:46.902Z,21.84
2018-06-13T03:23:46.874Z,21.81
2018-06-13T03:24:46.778Z,21.84
2018-06-13T03:25:46.941Z,21.8
2018-06-13T03:26:46.888Z,21.82
2018-06-13T03:27:46.776Z,21.82
2018-06-13T03:28:46.938Z,21.84
2018-06-13T03:29:46.858Z,21.8
2018-06-13T03:30:46.980Z,21.81
2018-06-13T03:31:46.974Z,21.8
2018-06-13T03:32:46.981Z,21.81
2018-06-13T03:33:46.952Z,21.84
2018-06-13T03:34:47.006Z,21.81
2018-06-13T03:35:47.151Z,21.84
2018-06-13T03:36:46.744Z,21.82
2018-06-13T03:37:46.795Z,21.81
2018-06-13T03:38:47.068Z,21.81
2018-06-13T03:39:46.944Z,21.81
2018-06-13T03:40:46.879Z,21.82
2018-06-13T03:41:46.880Z,21.82
2018-06-13T03:42:46.778Z,21.82
2018-06-13T03:43:46.906Z,21.8
2018-06-13T03:44:47.033Z,21.81
2018-06-13T03:45:46.754Z,21.8
2018-06-13T03:46:46.765Z,21.8
2018-06-13T03:47:46.989Z,21.82
2018-06-13T03:48:46.814Z,21.81
2018-06-13T03:49:46.907Z,21.81
2018-06-13T03:50:46.756Z,21.81
2018-06-13T03:51:46.945Z,21.81
2018-06-13T03:52:46.951Z,21.82
2018-06-13T03:53:47.057Z,21.8
2018-06-13T03:54:46.743Z,21.78
2018-06-13T03:55:46.978Z,21.81
2018-06-13T03:56:47.178Z,21.8
2018-06-13T03:57:47.116Z,21.8
2018-06-13T03:58:46.904Z,21.77
2018-06-13T03:59:46.713Z,21.8
2018-06-13T04:00:46.925Z,21.84
2018-06-13T04:01:47.320Z,21.84
2018-06-13T04:02:46.818Z,21.84
2018-06-13T04:03:46.822Z,21.81
2018-06-13T04:04:46.789Z,21.82
2018-06-13T04:05:46.916Z,21.81
2018-06-13T04:06:46.867Z,21.81
2018-06-13T04:07:46.863Z,21.78
2018-06-13T04:08:46.801Z,21.78
2018-06-13T04:09:46.766Z,21.78
2018-06-13T04:10:46.844Z,21.77
2018-06-13T04:11:46.701Z,21.81
2018-06-13T04:12:46.791Z,21.78
2018-06-13T04:13:47.217Z,21.78
2018-06-13T04:14:46.683Z,21.81
2018-06-13T04:15:46.725Z,21.81
2018-06-13T04:16:46.811Z,21.8
2018-06-13T04:17:46.761Z,21.82
2018-06-13T04:18:46.886Z,21.81
2018-06-13T04:19:46.786Z,21.8
2018-06-13T04:20:46.678Z,21.78
2018-06-13T04:21:46.963Z,21.78
2018-06-13T04:22:46.795Z,21.8
2018-06-13T04:23:46.911Z,21.8
2018-06-13T04:24:46.818Z,21.81
2018-06-13T04:25:46.981Z,21.78
2018-06-13T04:26:46.709Z,21.78
2018-06-13T04:27:46.849Z,21.78
2018-06-13T04:28:46.766Z,21.81
2018-06-13T04:29:46.711Z,21.8
2018-06-13T04:30:46.863Z,21.81
2018-06-13T04:31:46.719Z,21.78
2018-06-13T04:32:46.881Z,21.81
2018-06-13T04:33:46.768Z,21.81
2018-06-13T04:34:46.849Z,21.81
2018-06-13T04:35:47.179Z,21.8
2018-06-13T04:36:46.951Z,21.8
2018-06-13T04:37:46.898Z,21.77
2018-06-13T04:38:46.803Z,21.78
2018-06-13T04:39:46.793Z,21.78
2018-06-13T04:40:46.743Z,21.8
2018-06-13T04:41:46.939Z,21.81
2018-06-13T04:42:46.925Z,21.8
2018-06-13T04:43:46.989Z,21.81
2018-06-13T04:44:46.954Z,21.82
2018-06-13T04:45:46.859Z,21.8
2018-06-13T04:46:46.930Z,21.8
2018-06-13T04:47:46.684Z,21.8
2018-06-13T04:48:46.846Z,21.81
2018-06-13T04:49:46.969Z,21.77
2018-06-13T04:50:46.915Z,21.8
2018-06-13T04:51:46.934Z,21.81
2018-06-13T04:52:46.760Z,21.77
2018-06-13T04:53:46.836Z,21.78
2018-06-13T04:54:46.920Z,21.77
2018-06-13T04:55:46.911Z,21.78
2018-06-13T04:56:46.758Z,21.78
2018-06-13T04:57:46.984Z,21.78
2018-06-13T04:58:47.065Z,21.8
2018-06-13T04:59:46.879Z,21.78
2018-06-13T05:00:46.831Z,21.78
2018-06-13T05:01:46.968Z,21.78
2018-06-13T05:02:47.130Z,21.8
2018-06-13T05:03:46.794Z,21.78
2018-06-13T05:04:46.989Z,21.78
2018-06-13T05:05:46.759Z,21.8
2018-06-13T05:06:46.904Z,21.8
2018-06-13T05:07:46.852Z,21.78
2018-06-13T05:08:46.719Z,21.8
2018-06-13T05:09:46.847Z,21.81
2018-06-13T05:10:46.920Z,21.8
2018-06-13T05:11:46.898Z,21.8
2018-06-13T05:12:46.893Z,21.8
2018-06-13T05:13:46.864Z,21.81
2018-06-13T05:14:46.929Z,21.78
2018-06-13T05:15:46.890Z,21.77
2018-06-13T05:16:46.838Z,21.77
2018-06-13T05:17:46.994Z,21.8
2018-06-13T05:18:47.027Z,21.78
2018-06-13T05:19:46.930Z,21.78
2018-06-13T05:20:46.927Z,21.8
2018-06-13T05:21:46.948Z,21.8
2018-06-13T05:22:46.829Z,21.78
2018-06-13T05:23:46.868Z,21.74
2018-06-13T05:24:46.840Z,21.77
2018-06-13T05:25:46.809Z,21.77
2018-06-13T05:26:46.764Z,21.78
2018-06-13T05:27:46.948Z,21.78
2018-06-13T05:28:46.901Z,21.78
2018-06-13T05:29:46.816Z,21.77
2018-06-13T05:30:46.964Z,21.77
2018-06-13T05:31:46.960Z,21.78
2018-06-13T05:32:46.899Z,21.77
2018-06-13T05:33:46.878Z,21.76
2018-06-13T05:34:46.804Z,21.77
2018-06-13T05:35:46.936Z,21.77
2018-06-13T05:36:46.926Z,21.78
2018-06-13T05:37:46.852Z,21.76
2018-06-13T05:38:46.828Z,21.76
2018-06-13T05:39:46.853Z,21.77
2018-06-13T05:40:46.737Z,21.78
2018-06-13T05:41:46.879Z,21.77
2018-06-13T05:42:46.922Z,21.8
2018-06-13T05:43:47.142Z,21.78
2018-06-13T05:44:46.834Z,21.78
2018-06-13T05:45:46.869Z,21.8
2018-06-13T05:46:46.804Z,21.78
2018-06-13T05:47:46.667Z,21.77
2018-06-13T05:48:46.891Z,21.77
2018-06-13T05:49:46.799Z,21.78
2018-06-13T05:50:46.777Z,21.77
2018-06-13T05:51:46.867Z,21.78
2018-06-13T05:52:46.716Z,21.78
2018-06-13T05:53:46.816Z,21.77
2018-06-13T05:54:46.805Z,21.77
2018-06-13T05:55:46.893Z,21.76
2018-06-13T05:56:46.962Z,21.77
2018-06-13T05:57:46.905Z,21.78
2018-06-13T05:58:46.838Z,21.77
2018-06-13T05:59:46.779Z,21.77
2018-06-13T06:00:46.729Z,21.76
2018-06-13T06:01:56.946Z,21.78
2018-06-13T06:02:47.181Z,21.77
2018-06-13T06:03:46.847Z,21.77
2018-06-13T06:04:46.751Z,21.77
2018-06-13T06:05:46.785Z,21.77
2018-06-13T06:06:46.806Z,21.76
2018-06-13T06:07:46.952Z,21.77
2018-06-13T06:08:46.705Z,21.77
2018-06-13T06:09:46.989Z,21.77
2018-06-13T06:10:46.848Z,21.76
2018-06-13T06:11:46.787Z,21.77
2018-06-13T06:12:47.063Z,21.77
2018-06-13T06:13:46.768Z,21.61
2018-06-13T06:14:46.822Z,21.46
2018-06-13T06:15:46.762Z,21.22
2018-06-13T06:16:46.825Z,21.08
2018-06-13T06:17:46.851Z,21.08
2018-06-13T06:18:46.846Z,21.03
2018-06-13T06:19:46.894Z,21.03
2018-06-13T06:20:46.833Z,21.05
2018-06-13T06:21:46.901Z,21.01
2018-06-13T06:22:46.703Z,21.03
2018-06-13T06:23:46.868Z,21.02
2018-06-13T06:24:46.725Z,20.95
2018-06-13T06:25:46.734Z,21.02
2018-06-13T06:26:46.785Z,21.06
2018-06-13T06:27:46.779Z,21.08
2018-06-13T06:28:48.230Z,21.08
2018-06-13T06:29:46.816Z,21.08
2018-06-13T06:30:46.752Z,21.06
2018-06-13T06:31:46.748Z,21.02
2018-06-13T06:32:46.919Z,21.02
2018-06-13T06:33:46.729Z,21.03
2018-06-13T06:34:46.689Z,21.06
2018-06-13T06:35:46.850Z,21.01
2018-06-13T06:36:47.004Z,20.98
2018-06-13T06:37:46.984Z,21.01
2018-06-13T06:38:46.896Z,21.05
2018-06-13T06:39:46.898Z,21.01
2018-06-13T06:40:46.875Z,20.99
2018-06-13T06:41:46.944Z,20.98
2018-06-13T06:42:46.711Z,21.01
2018-06-13T06:43:46.953Z,20.98
2018-06-13T06:44:46.871Z,21.03
2018-06-13T06:45:46.783Z,21.05
2018-06-13T06:46:46.588Z,21.09
2018-06-13T06:47:46.884Z,21.15
2018-06-13T06:48:46.901Z,21.18
2018-06-13T06:49:46.777Z,21.22
2018-06-13T06:50:46.714Z,21.26
2018-06-13T06:51:46.646Z,21.29
2018-06-13T06:52:46.809Z,21.33
2018-06-13T06:53:46.811Z,21.3
2018-06-13T06:54:46.903Z,21.36
2018-06-13T06:55:46.748Z,21.39
2018-06-13T06:56:46.794Z,21.37
2018-06-13T06:57:46.836Z,21.39
2018-06-13T06:58:46.745Z,21.39
2018-06-13T06:59:46.868Z,21.43
2018-06-13T07:00:46.775Z,21.43
2018-06-13T07:01:46.938Z,21.46
2018-06-13T07:02:47.416Z,21.46
2018-06-13T07:03:46.896Z,21.46
2018-06-13T07:04:46.896Z,21.46
2018-06-13T07:05:46.786Z,21.44
2018-06-13T07:06:46.986Z,21.47
2018-06-13T07:07:46.879Z,21.49
2018-06-13T07:08:46.930Z,21.49
2018-06-13T07:09:46.697Z,21.5
2018-06-13T07:10:46.801Z,21.51
2018-06-13T07:11:46.766Z,21.51
2018-06-13T07:12:46.912Z,21.54
2018-06-13T07:13:46.851Z,21.54
2018-06-13T07:14:46.876Z,21.54
2018-06-13T07:15:46.908Z,21.57
2018-06-13T07:16:46.776Z,21.6
2018-06-13T07:17:46.847Z,21.61
2018-06-13T07:18:46.848Z,21.61
2018-06-13T07:19:46.790Z,21.6
2018-06-13T07:20:47.076Z,21.6
2018-06-13T07:21:46.753Z,21.63
2018-06-13T07:22:46.766Z,21.63
2018-06-13T07:23:46.770Z,21.64
2018-06-13T07:24:47.063Z,21.63
2018-06-13T07:25:46.931Z,21.61
2018-06-13T07:26:46.947Z,21.64
2018-06-13T07:27:46.684Z,21.66
2018-06-13T07:28:46.900Z,21.64
2018-06-13T07:29:46.721Z,21.64
2018-06-13T07:30:46.656Z,21.66
2018-06-13T07:31:46.824Z,21.67
2018-06-13T07:32:46.797Z,21.7
2018-06-13T07:33:46.888Z,21.68
2018-06-13T07:34:46.977Z,21.7
2018-06-13T07:35:46.873Z,21.71
2018-06-13T07:36:46.752Z,21.73
2018-06-13T07:37:46.817Z,21.74
2018-06-13T07:38:46.650Z,21.71
2018-06-13T07:39:47.022Z,21.73
2018-06-13T07:40:46.896Z,21.74
2018-06-13T07:41:46.738Z,21.73
2018-06-13T07:42:46.640Z,21.76
2018-06-13T07:43:46.811Z,21.74
2018-06-13T07:44:46.821Z,21.74
2018-06-13T07:45:46.917Z,21.76
2018-06-13T07:46:46.957Z,21.76
2018-06-13T07:48:01.160Z,21.76
2018-06-13T07:48:46.714Z,21.77
2018-06-13T07:49:47.506Z,21.76
2018-06-13T07:50:46.868Z,21.77
2018-06-13T07:51:46.826Z,21.76
2018-06-13T07:52:46.576Z,21.77
2018-06-13T07:53:46.629Z,21.76
2018-06-13T07:54:46.653Z,21.77
2018-06-13T07:55:46.843Z,21.78
2018-06-13T07:56:46.697Z,21.77
2018-06-13T07:57:46.760Z,21.76
2018-06-13T07:58:46.807Z,21.77
2018-06-13T07:59:46.701Z,21.77
2018-06-13T08:00:46.807Z,21.78
2018-06-13T08:01:46.690Z,21.77
2018-06-13T08:02:46.715Z,21.8
2018-06-13T08:03:46.752Z,21.8
2018-06-13T08:04:46.628Z,21.8
2018-06-13T08:05:46.689Z,21.77
2018-06-13T08:06:46.747Z,21.77
2018-06-13T08:07:46.727Z,21.74
2018-06-13T08:08:47.359Z,21.74
2018-06-13T08:09:46.744Z,21.74
2018-06-13T08:10:46.625Z,21.76
2018-06-13T08:11:46.922Z,21.74
2018-06-13T08:12:46.860Z,21.76
2018-06-13T08:13:56.656Z,21.74
2018-06-13T08:14:46.878Z,21.77
2018-06-13T08:15:46.721Z,21.73
2018-06-13T08:16:47.179Z,21.74
2018-06-13T08:17:46.827Z,21.7
2018-06-13T08:18:46.708Z,21.7
2018-06-13T08:19:46.944Z,21.68
2018-06-13T08:20:46.765Z,21.71
2018-06-13T08:21:46.690Z,21.71
2018-06-13T08:22:46.676Z,21.71
2018-06-13T08:23:46.771Z,21.73
2018-06-13T08:24:46.671Z,21.71
2018-06-13T08:25:46.827Z,21.68
2018-06-13T08:26:46.697Z,21.68
2018-06-13T08:27:46.658Z,21.68
2018-06-13T08:28:46.928Z,21.71
2018-06-13T08:29:46.723Z,21.71
2018-06-13T08:30:46.710Z,21.68
2018-06-13T08:31:46.830Z,21.67
2018-06-13T08:32:46.688Z,21.68
2018-06-13T08:33:47.331Z,21.66
2018-06-13T08:34:46.737Z,21.64
2018-06-13T08:35:47.073Z,21.66
2018-06-13T08:36:46.784Z,21.67
2018-06-13T08:37:46.726Z,21.68
2018-06-13T08:38:46.831Z,21.68
2018-06-13T08:39:47.352Z,21.68
2018-06-13T08:40:46.780Z,21.66
2018-06-13T08:41:46.834Z,21.64
2018-06-13T08:42:46.722Z,21.64
2018-06-13T08:43:46.784Z,21.68
2018-06-13T08:44:46.683Z,21.66
2018-06-13T08:45:46.649Z,21.68
2018-06-13T08:46:46.923Z,21.66
2018-06-13T08:47:47.043Z,21.64
2018-06-13T08:48:46.628Z,21.68
2018-06-13T08:49:46.892Z,21.67
2018-06-13T08:50:46.757Z,21.67
2018-06-13T08:51:46.806Z,21.71
2018-06-13T08:52:46.987Z,21.66
2018-06-13T08:53:46.703Z,21.67
2018-06-13T08:54:46.598Z,21.67
2018-06-13T08:55:47.118Z,21.68
2018-06-13T08:56:46.760Z,21.66
2018-06-13T08:57:46.740Z,21.67
2018-06-13T08:58:46.718Z,21.64
2018-06-13T08:59:46.873Z,21.67
2018-06-13T09:00:46.731Z,21.67
2018-06-13T09:01:46.763Z,21.66
2018-06-13T09:02:46.805Z,21.67
2018-06-13T09:03:46.780Z,21.66
2018-06-13T09:04:46.951Z,21.64
2018-06-13T09:05:46.664Z,21.67
2018-06-13T09:06:46.717Z,21.66
2018-06-13T09:07:46.722Z,21.63
2018-06-13T09:08:46.640Z,21.64
2018-06-13T09:09:46.783Z,21.64
2018-06-13T09:10:46.768Z,21.63
2018-06-13T09:11:46.834Z,21.64
2018-06-13T09:12:46.594Z,21.63
2018-06-13T09:13:46.648Z,21.66
2018-06-13T09:14:46.806Z,21.64
2018-06-13T09:15:46.658Z,21.66
2018-06-13T09:16:46.774Z,21.64
2018-06-13T09:17:46.720Z,21.66
2018-06-13T09:18:46.663Z,21.64
2018-06-13T09:19:47.116Z,21.64
2018-06-13T09:20:46.722Z,21.67
2018-06-13T09:21:46.661Z,21.68
2018-06-13T09:22:46.991Z,21.67
2018-06-13T09:23:46.949Z,21.64
2018-06-13T09:24:46.796Z,21.64
2018-06-13T09:25:46.908Z,21.66
2018-06-13T09:26:46.714Z,21.67
2018-06-13T09:27:46.637Z,21.64
2018-06-13T09:28:46.841Z,21.64
2018-06-13T09:29:46.726Z,21.66
2018-06-13T09:30:46.668Z,21.64
2018-06-13T09:31:47.014Z,21.64
2018-06-13T09:32:46.665Z,21.66
2018-06-13T09:33:46.773Z,21.64
2018-06-13T09:34:46.816Z,21.63
2018-06-13T09:35:46.692Z,21.63
2018-06-13T09:36:46.973Z,21.66
2018-06-13T09:37:46.671Z,21.66
2018-06-13T09:38:46.751Z,21.66
2018-06-13T09:39:46.602Z,21.64
2018-06-13T09:40:46.653Z,21.63
2018-06-13T09:41:46.657Z,21.64
2018-06-13T09:42:46.738Z,21.64
2018-06-13T09:43:46.687Z,21.67
2018-06-13T09:44:46.873Z,21.66
2018-06-13T09:45:46.726Z,21.66
2018-06-13T09:46:49.369Z,21.66
2018-06-13T09:47:46.628Z,21.66
2018-06-13T09:48:56.621Z,21.66
2018-06-13T09:49:46.634Z,21.64
2018-06-13T09:50:46.824Z,21.63
2018-06-13T09:51:46.760Z,21.63
2018-06-13T09:52:46.891Z,21.66
2018-06-13T09:53:46.584Z,21.61
2018-06-13T09:54:47.253Z,21.61
2018-06-13T09:55:46.749Z,21.63
2018-06-13T09:56:47.211Z,21.61
2018-06-13T09:57:46.755Z,21.64
2018-06-13T09:58:46.745Z,21.64
2018-06-13T09:59:46.809Z,21.63
2018-06-13T10:00:46.695Z,21.63
2018-06-13T10:01:47.538Z,21.64
2018-06-13T10:02:46.675Z,21.64
2018-06-13T10:03:46.848Z,21.64
2018-06-13T10:04:46.857Z,21.63
2018-06-13T10:05:46.734Z,21.64
2018-06-13T10:06:46.852Z,21.63
2018-06-13T10:07:46.846Z,21.63
2018-06-13T10:08:47.972Z,21.63
2018-06-13T10:09:46.751Z,21.6
2018-06-13T10:10:46.777Z,21.63
2018-06-13T10:11:46.797Z,21.63
2018-06-13T10:12:46.699Z,21.64
2018-06-13T10:13:46.813Z,21.64
2018-06-13T10:14:46.748Z,21.61
2018-06-13T10:15:46.763Z,21.64
2018-06-13T10:16:46.719Z,21.63
2018-06-13T10:17:46.854Z,21.63
2018-06-13T10:18:46.805Z,21.63
2018-06-13T10:19:46.780Z,21.63
2018-06-13T10:20:46.764Z,21.6
2018-06-13T10:21:46.883Z,21.64
2018-06-13T10:22:46.549Z,21.6
2018-06-13T10:23:46.684Z,21.61
2018-06-13T10:24:46.679Z,21.64
2018-06-13T10:25:46.862Z,21.61
2018-06-13T10:26:46.890Z,21.6
2018-06-13T10:27:46.662Z,21.61
2018-06-13T10:28:46.599Z,21.61
2018-06-13T10:29:46.823Z,21.64
2018-06-13T10:30:46.820Z,21.61
2018-06-13T10:31:46.634Z,21.61
2018-06-13T10:32:46.864Z,21.6
2018-06-13T10:33:46.653Z,21.63
2018-06-13T10:34:46.806Z,21.63
2018-06-13T10:35:46.757Z,21.63
2018-06-13T10:36:46.836Z,21.6
2018-06-13T10:37:46.840Z,21.6
2018-06-13T10:38:46.793Z,21.6
2018-06-13T10:39:46.736Z,21.63
2018-06-13T10:40:46.708Z,21.61
2018-06-13T10:41:46.779Z,21.61
2018-06-13T10:42:46.563Z,21.6
2018-06-13T10:43:46.757Z,21.61
2018-06-13T10:44:46.673Z,21.61
2018-06-13T10:45:46.683Z,21.61
2018-06-13T10:46:46.755Z,21.64
2018-06-13T10:47:46.771Z,21.6
2018-06-13T10:48:46.747Z,21.66
2018-06-13T10:49:46.758Z,21.63
2018-06-13T10:50:46.881Z,21.61
2018-06-13T10:51:46.790Z,21.63
2018-06-13T10:52:46.752Z,21.61
2018-06-13T10:53:46.762Z,21.6
2018-06-13T10:54:46.833Z,21.63
2018-06-13T10:55:46.606Z,21.63
2018-06-13T10:56:46.838Z,21.63
2018-06-13T10:57:46.739Z,21.63
2018-06-13T10:58:46.701Z,21.63
2018-06-13T10:59:46.820Z,21.6
2018-06-13T11:00:46.804Z,21.63
2018-06-13T11:01:47.052Z,21.6
2018-06-13T11:02:46.601Z,21.63
2018-06-13T11:03:46.687Z,21.63
2018-06-13T11:04:47.376Z,21.61
2018-06-13T11:05:46.877Z,21.63
2018-06-13T11:06:46.824Z,21.63
2018-06-13T11:07:46.521Z,21.63
2018-06-13T11:08:46.665Z,21.64
2018-06-13T11:09:46.731Z,21.64
2018-06-13T11:10:46.708Z,21.61
2018-06-13T11:11:46.963Z,21.63
2018-06-13T11:12:46.830Z,21.63
2018-06-13T11:13:46.874Z,21.61
2018-06-13T11:14:46.917Z,21.6
2018-06-13T11:15:46.693Z,21.6
2018-06-13T11:16:46.641Z,21.63
2018-06-13T11:17:46.690Z,21.63
2018-06-13T11:18:46.695Z,21.61
2018-06-13T11:19:46.825Z,21.61
2018-06-13T11:20:46.798Z,21.63
2018-06-13T11:21:46.757Z,21.61
2018-06-13T11:22:46.630Z,21.61
2018-06-13T11:23:46.855Z,21.63
2018-06-13T11:24:46.870Z,21.61
2018-06-13T11:25:46.617Z,21.6
2018-06-13T11:26:46.649Z,21.6
2018-06-13T11:27:46.733Z,21.59
2018-06-13T11:28:46.683Z,21.61
2018-06-13T11:29:46.728Z,21.63
2018-06-13T11:30:46.813Z,21.63
2018-06-13T11:31:46.595Z,21.61
2018-06-13T11:32:46.722Z,21.61
2018-06-13T11:33:46.774Z,21.61
2018-06-13T11:34:46.485Z,21.6
2018-06-13T11:35:46.714Z,21.63
2018-06-13T11:36:46.802Z,21.6
2018-06-13T11:37:46.691Z,21.61
2018-06-13T11:38:46.685Z,21.63
2018-06-13T11:39:46.783Z,21.61
2018-06-13T11:40:46.643Z,21.61
2018-06-13T11:41:46.616Z,21.64
2018-06-13T11:42:46.766Z,21.63
2018-06-13T11:43:46.584Z,21.61
2018-06-13T11:44:46.645Z,21.6
2018-06-13T11:45:46.997Z,21.61
2018-06-13T11:46:46.723Z,21.6
2018-06-13T11:47:46.776Z,21.6
2018-06-13T11:48:46.726Z,21.61
2018-06-13T11:49:46.887Z,21.61
2018-06-13T11:50:46.719Z,21.61
2018-06-13T11:51:47.009Z,21.63
2018-06-13T11:52:46.704Z,21.6
2018-06-13T11:53:46.764Z,21.61
2018-06-13T11:54:46.675Z,21.61
2018-06-13T11:55:46.735Z,21.59
2018-06-13T11:56:46.720Z,21.6
2018-06-13T11:57:46.905Z,21.61
2018-06-13T11:58:46.844Z,21.59
2018-06-13T11:59:47.054Z,21.6
2018-06-13T12:00:46.863Z,21.6
2018-06-13T12:01:47.012Z,21.61
2018-06-13T12:02:46.921Z,21.61
2018-06-13T12:03:46.758Z,21.6
2018-06-13T12:04:46.741Z,21.63
2018-06-13T12:05:46.861Z,21.61
2018-06-13T12:06:46.723Z,21.6
2018-06-13T12:07:46.750Z,21.6
2018-06-13T12:08:46.844Z,21.6
2018-06-13T12:09:46.685Z,21.6
2018-06-13T12:11:01.563Z,21.6
2018-06-13T12:11:46.820Z,21.6
2018-06-13T12:12:46.902Z,21.64
2018-06-13T12:13:46.876Z,21.6
2018-06-13T12:14:46.824Z,21.6
2018-06-13T12:15:46.726Z,21.6
2018-06-13T12:16:46.956Z,21.59
2018-06-13T12:17:46.674Z,21.6
2018-06-13T12:18:46.683Z,21.59
2018-06-13T12:19:46.826Z,21.6
2018-06-13T12:20:46.646Z,21.6
2018-06-13T12:21:46.665Z,21.61
2018-06-13T12:22:46.854Z,21.6
2018-06-13T12:23:46.901Z,21.61
2018-06-13T12:24:46.782Z,21.59
2018-06-13T12:25:46.915Z,21.56
2018-06-13T12:26:46.656Z,21.59
2018-06-13T12:27:46.703Z,21.59
2018-06-13T12:28:46.798Z,21.59
2018-06-13T12:29:46.707Z,21.59
2018-06-13T12:30:46.872Z,21.6
2018-06-13T12:31:46.590Z,21.6
2018-06-13T12:32:46.726Z,21.6
2018-06-13T12:33:46.710Z,21.61
2018-06-13T12:34:46.724Z,21.6
2018-06-13T12:35:46.829Z,21.6
2018-06-13T12:36:46.630Z,21.6
2018-06-13T12:37:46.687Z,21.61
2018-06-13T12:38:46.789Z,21.59
2018-06-13T12:39:46.707Z,21.61
2018-06-13T12:40:46.767Z,21.57
2018-06-13T12:41:46.677Z,21.6
2018-06-13T12:42:46.717Z,21.61
2018-06-13T12:43:46.684Z,21.6
2018-06-13T12:44:46.706Z,21.6
2018-06-13T12:45:46.636Z,21.6
2018-06-13T12:46:46.590Z,21.6
2018-06-13T12:47:46.667Z,21.6
2018-06-13T12:48:46.704Z,21.59
2018-06-13T12:49:46.716Z,21.63
2018-06-13T12:50:47.014Z,21.64
2018-06-13T12:51:46.685Z,21.64
2018-06-13T12:52:48.447Z,21.64
2018-06-13T12:53:46.945Z,21.63
2018-06-13T12:54:46.594Z,21.61
2018-06-13T12:55:46.745Z,21.61